Terminal Aerodrome Forecast
Issued by NWS

Home | Current Version | Previous Version | Text Only | Print | Product List | Glossary On
Versions: 1 2 3 4 5 6 7 8 9 10 11 12 13 14 15 16 17
000
FTUS43 KMQT 030520
TAFSAW
TAF
KSAW 030520Z 0306/0406 21007KT P6SM SCT100
     FM031400 25009KT P6SM SCT100
     FM031600 23010KT P6SM BKN100
     FM032100 22007KT P6SM -SHRA BKN080
     FM040200 35003KT P6SM SCT100=

USA.gov is the U.S. government's official web portal to all federal, state and local government web resources and services.